8K9 weather

Murphys Pullout Seaplane Base
Ketchikan, Alaska, United States

Public forecast

Using degrees Fahrenheit for public forecast. Weather courtesy of forecast.io.

METAR (pilot weather report)

Closest report is Ketchikan International Airport, 2.2 nm (4.1 km) SSE. Retrieved 2019/07/20 01:53 UTC (17 minutes ago):

PAKT 200153Z 11012KT 10SM FEW021 SCT060 18/11 A3014

TAF (pilot weather forecast)

Forecast is more than 12 hours old.

Closest forecast is Ketchikan International Airport, 2.2 nm (4.1 km) SSE. Retrieved 2019/07/19 00:28 UTC (1 day ago):

TAF PAKT 192326Z 2000/2024 13006KT P6SM SCT015 BKN035 OVC060 FM200600 14006KT P6SM -RA SCT008 OVC015 AMD LTD TO CLD VIS AND WIND 2006/2015